Time;durP1;ratioP1;P1;durP2;ratioP2;P2;SDS_P1;SDS_P2;PMS_P1;PMS_P2;Temp;Humidity;BMP_temperature;BMP_pressure;BME280_temperature;BME280_humidity;BME280_pressure;Samples;Min_cycle;Max_cycle;Signal;HPM_P1;HPM_P2
2023/06/04 00:00:02;;;;;;;6.72;2.85;;;;;;;8.86;74.06;149523.44;5046809;28;20096;-68
2023/06/04 00:02:30;;;;;;;4.45;3.10;;;;;;;8.87;73.51;149526.03;5064229;28;20049;-68
2023/06/04 00:04:56;;;;;;;4.22;2.50;;;;;;;8.86;74.42;149524.72;5062709;28;20040;-69
2023/06/04 00:07:21;;;;;;;3.88;2.60;;;;;;;8.75;73.62;149496.53;5064402;28;20071;-69
2023/06/04 00:09:47;;;;;;;4.25;2.90;;;;;;;8.84;74.31;149519.63;5064439;28;20229;-69
2023/06/04 00:12:13;;;;;;;5.70;2.67;;;;;;;8.78;73.95;149504.25;5064301;28;20021;-70
2023/06/04 00:14:39;;;;;;;4.18;2.60;;;;;;;8.74;75.04;149495.28;5064219;28;20099;-70
2023/06/04 00:17:05;;;;;;;5.38;2.80;;;;;;;8.72;74.29;149490.19;5064311;28;20241;-69
2023/06/04 00:19:30;;;;;;;3.90;2.65;;;;;;;8.69;74.35;149482.44;5064192;28;20352;-69
2023/06/04 00:21:56;;;;;;;3.78;2.28;;;;;;;8.63;73.56;149467.09;5064428;28;20025;-69
2023/06/04 00:24:22;;;;;;;4.85;3.03;;;;;;;8.67;74.14;149476.09;5064222;28;20373;-71
2023/06/04 00:26:47;;;;;;;3.17;2.40;;;;;;;8.60;73.47;149459.44;5064311;28;20088;-70
2023/06/04 00:29:13;;;;;;;2.90;2.30;;;;;;;8.56;74.67;149449.19;5063851;28;20036;-70
2023/06/04 00:31:38;;;;;;;6.40;2.55;;;;;;;8.53;75.53;149442.75;5064117;28;20021;-70
2023/06/04 00:34:04;;;;;;;6.50;2.53;;;;;;;8.52;75.13;149438.94;5062838;28;20301;-69
2023/06/04 00:36:30;;;;;;;6.10;2.85;;;;;;;8.55;75.85;149447.91;5064177;28;20029;-69
2023/06/04 00:38:56;;;;;;;5.35;2.90;;;;;;;8.54;76.04;149444.06;5056028;28;20339;-69
2023/06/04 00:41:21;;;;;;;3.42;2.50;;;;;;;8.54;77.38;149444.06;5063534;28;20028;-69
2023/06/04 00:43:55;;;;;;;4.07;2.45;;;;;;;8.54;77.21;149445.34;5063819;28;20029;-70
2023/06/04 00:46:25;;;;;;;4.53;2.60;;;;;;;8.58;76.38;149455.59;5063532;28;20059;-69
2023/06/04 00:48:51;;;;;;;3.80;2.33;;;;;;;8.55;76.37;149446.59;5063914;28;20037;-69
2023/06/04 00:51:16;;;;;;;5.20;2.42;;;;;;;8.48;75.19;149428.69;5063219;28;20237;-70
2023/06/04 00:53:42;;;;;;;5.22;2.30;;;;;;;8.50;75.51;149433.84;5063658;28;20029;-70
2023/06/04 00:56:08;;;;;;;3.97;2.47;;;;;;;8.52;75.62;149438.94;5063374;28;20032;-71
2023/06/04 00:58:38;;;;;;;5.65;2.40;;;;;;;8.40;75.16;149410.72;5063498;28;20028;-70
2023/06/04 01:01:07;;;;;;;2.78;1.98;;;;;;;8.48;76.20;149428.69;5063285;28;20041;-70
2023/06/04 01:03:38;;;;;;;4.03;2.60;;;;;;;8.36;76.07;149399.19;5063509;28;20092;-70
2023/06/04 01:06:27;;;;;;;3.08;2.33;;;;;;;8.38;75.26;149405.63;5063249;28;20108;-69
2023/06/04 01:08:58;;;;;;;2.50;2.30;;;;;;;8.34;74.67;149395.38;5063264;28;20055;-68
2023/06/04 01:11:38;;;;;;;5.95;2.45;;;;;;;8.38;74.81;149404.31;5062708;28;20040;-68
2023/06/04 01:14:08;;;;;;;3.50;2.30;;;;;;;8.35;74.29;149396.63;5063322;28;20024;-68
2023/06/04 01:16:48;;;;;;;4.07;2.47;;;;;;;8.41;74.65;149412.03;5061794;28;20213;-69
2023/06/04 01:19:56;;;;;;;3.42;2.50;;;;;;;8.35;74.74;149396.63;5062945;28;20041;-68
2023/06/04 01:22:51;;;;;;;4.45;2.45;;;;;;;8.33;75.51;149391.53;5041111;28;20538;-70
2023/06/04 01:25:31;;;;;;;3.63;2.33;;;;;;;8.36;76.29;149400.47;5021606;28;20065;-70
2023/06/04 01:27:58;;;;;;;4.05;2.28;;;;;;;8.34;75.36;149395.38;5021948;28;20052;-68
2023/06/04 01:30:30;;;;;;;3.42;2.17;;;;;;;8.29;74.99;149383.84;5041299;28;20040;-69
2023/06/04 01:32:56;;;;;;;3.88;2.40;;;;;;;8.30;76.16;149386.38;5041274;28;20076;-69
2023/06/04 01:35:22;;;;;;;3.40;2.55;;;;;;;8.30;75.12;149385.13;5040861;28;20037;-69
2023/06/04 01:37:49;;;;;;;3.97;2.53;;;;;;;8.35;75.42;149396.63;5041333;28;20098;-69
2023/06/04 01:40:15;;;;;;;2.75;2.17;;;;;;;8.27;75.10;149378.72;5040956;28;20045;-68
2023/06/04 01:42:41;;;;;;;3.17;2.10;;;;;;;8.32;76.08;149390.22;5041102;28;20324;-68
2023/06/04 01:45:08;;;;;;;3.35;2.30;;;;;;;8.29;76.36;149383.84;5040913;28;20029;-69
2023/06/04 01:47:34;;;;;;;2.97;2.20;;;;;;;8.35;74.84;149397.94;5041110;28;20092;-68
2023/06/04 01:50:00;;;;;;;5.43;2.20;;;;;;;8.32;75.49;149390.22;5040882;28;20033;-68
2023/06/04 01:52:26;;;;;;;3.63;2.40;;;;;;;8.37;75.48;149403.03;5046425;28;20143;-69
2023/06/04 01:54:52;;;;;;;4.82;2.38;;;;;;;8.42;74.54;149414.53;5047020;28;20057;-71
2023/06/04 01:57:20;;;;;;;2.97;2.05;;;;;;;8.39;75.11;149408.13;5061710;28;20042;-69
2023/06/04 01:59:46;;;;;;;3.05;2.33;;;;;;;8.44;75.90;149421.00;5062588;28;20245;-70
2023/06/04 02:02:12;;;;;;;3.58;2.25;;;;;;;8.42;74.78;149415.84;5058253;28;20040;-68
2023/06/04 02:04:41;;;;;;;4.25;2.13;;;;;;;8.52;74.79;149438.94;5048515;28;20040;-70
2023/06/04 02:07:10;;;;;;;3.60;1.90;;;;;;;8.58;74.08;149455.59;5062757;28;20044;-70
2023/06/04 02:09:36;;;;;;;6.97;2.00;;;;;;;8.57;74.50;149451.75;5062729;28;20036;-68
2023/06/04 02:12:02;;;;;;;4.32;2.25;;;;;;;8.57;75.92;149453.03;5062793;28;20249;-68
2023/06/04 02:14:27;;;;;;;2.95;2.35;;;;;;;8.55;75.31;149447.91;5062535;28;20037;-69
2023/06/04 02:16:57;;;;;;;3.45;2.35;;;;;;;8.68;75.53;149478.63;5061506;28;20071;-70
2023/06/04 02:19:25;;;;;;;5.28;2.17;;;;;;;8.77;74.71;149502.94;5062426;28;20024;-69
2023/06/04 02:21:52;;;;;;;4.53;2.20;;;;;;;8.75;74.63;149496.53;5062718;28;20025;-70
2023/06/04 02:24:17;;;;;;;3.65;2.45;;;;;;;8.76;74.83;149500.38;5062657;28;20051;-68
2023/06/04 02:26:43;;;;;;;4.75;2.42;;;;;;;8.77;75.29;149502.94;5062786;28;20088;-68
2023/06/04 02:29:09;;;;;;;3.42;2.30;;;;;;;8.75;74.75;149497.84;5060237;28;20456;-69
2023/06/04 02:31:34;;;;;;;2.75;2.40;;;;;;;8.76;74.48;149499.13;5050996;28;20033;-67
2023/06/04 02:34:00;;;;;;;5.15;2.63;;;;;;;8.74;75.24;149494.00;5066346;28;20091;-68
2023/06/04 02:36:26;;;;;;;4.50;2.25;;;;;;;8.84;74.36;149519.63;5066316;28;20053;-69
2023/06/04 02:38:52;;;;;;;4.22;2.30;;;;;;;8.79;74.20;149506.78;5066332;28;20024;-69
2023/06/04 02:41:18;;;;;;;3.35;2.00;;;;;;;8.74;74.76;149495.28;5065676;28;20100;-69
2023/06/04 02:43:44;;;;;;;3.83;1.95;;;;;;;8.86;74.92;149524.72;5061759;28;20198;-69
2023/06/04 02:46:10;;;;;;;3.67;2.35;;;;;;;8.87;74.71;149526.03;5059023;28;20082;-69
2023/06/04 02:48:35;;;;;;;2.83;1.80;;;;;;;8.88;74.29;149529.88;5066255;28;20325;-68
2023/06/04 02:51:01;;;;;;;6.82;2.03;;;;;;;8.91;74.30;149536.28;5065987;28;20036;-68
2023/06/04 02:53:26;;;;;;;4.28;2.17;;;;;;;8.80;75.09;149510.63;5065890;28;20102;-69
2023/06/04 02:55:52;;;;;;;2.83;1.90;;;;;;;8.88;74.13;149529.88;5066033;28;20025;-69
2023/06/04 02:58:18;;;;;;;2.72;1.70;;;;;;;9.02;73.99;149564.47;5065794;28;20043;-68
2023/06/04 03:00:44;;;;;;;3.65;1.77;;;;;;;9.08;74.96;149579.81;5065021;28;20301;-69
2023/06/04 03:03:10;;;;;;;4.63;2.08;;;;;;;9.06;75.02;149573.41;5065922;28;20036;-68
2023/06/04 03:05:36;;;;;;;2.55;1.90;;;;;;;9.01;74.54;149561.88;5065851;28;20075;-68
2023/06/04 03:08:03;;;;;;;3.35;1.95;;;;;;;9.14;74.61;149595.16;5065792;28;20037;-68
2023/06/04 03:10:29;;;;;;;2.75;1.70;;;;;;;9.15;74.74;149597.75;5065550;28;20044;-69
2023/06/04 03:12:55;;;;;;;1.90;1.70;;;;;;;9.21;73.50;149610.56;5065520;28;20025;-69
2023/06/04 03:15:21;;;;;;;5.03;2.00;;;;;;;9.26;73.75;149623.34;5064468;28;20221;-70
2023/06/04 03:17:46;;;;;;;2.95;1.88;;;;;;;9.25;74.78;149622.09;5065603;28;20029;-70
2023/06/04 03:20:12;;;;;;;2.20;1.75;;;;;;;9.30;73.44;149633.63;5065441;28;20037;-68
2023/06/04 03:22:38;;;;;;;3.03;1.63;;;;;;;9.32;72.87;149638.75;5065244;28;20056;-68
2023/06/04 03:25:04;;;;;;;2.22;1.75;;;;;;;9.54;72.84;149693.84;5047461;28;20020;-69
2023/06/04 03:27:32;;;;;;;3.92;2.25;;;;;;;9.83;72.32;149766.91;5045301;28;20119;-68
2023/06/04 03:29:57;;;;;;;3.30;1.60;;;;;;;9.95;71.10;149796.38;5061182;28;20040;-69
2023/06/04 03:32:23;;;;;;;1.92;1.73;;;;;;;9.80;72.29;149757.91;5065106;28;20028;-69
2023/06/04 03:34:48;;;;;;;2.08;1.50;;;;;;;9.91;72.22;149786.09;5065131;28;20048;-69
2023/06/04 03:37:14;;;;;;;2.17;1.50;;;;;;;9.92;71.84;149788.69;5065188;28;20067;-69
2023/06/04 03:39:39;;;;;;;2.78;1.60;;;;;;;9.96;72.15;149798.94;5064656;28;20267;-69
2023/06/04 03:42:05;;;;;;;2.20;1.67;;;;;;;10.13;71.18;149841.25;5064962;28;20048;-69
2023/06/04 03:44:31;;;;;;;2.63;1.63;;;;;;;10.29;70.96;149879.66;5064932;28;20256;-69
2023/06/04 03:46:57;;;;;;;1.83;1.60;;;;;;;10.25;71.61;149870.72;5064995;28;20024;-69
2023/06/04 03:49:22;;;;;;;2.75;1.73;;;;;;;10.11;72.08;149834.84;5064733;28;20077;-70
2023/06/04 03:51:48;;;;;;;2.83;1.38;;;;;;;10.17;71.76;149851.47;5064875;28;20021;-69
2023/06/04 03:54:17;;;;;;;1.85;1.60;;;;;;;10.17;71.29;149851.47;5064815;28;20064;-70
2023/06/04 03:56:44;;;;;;;2.00;1.70;;;;;;;10.28;71.00;149878.41;5060483;28;20033;-69
2023/06/04 03:59:10;;;;;;;4.25;1.80;;;;;;;10.31;71.30;149884.81;5053559;28;20052;-69
2023/06/04 04:01:36;;;;;;;1.90;1.77;;;;;;;10.41;70.97;149910.50;5064721;28;20033;-69
2023/06/04 04:04:01;;;;;;;2.45;1.67;;;;;;;10.39;71.45;149905.41;5064634;28;20036;-70
2023/06/04 04:06:27;;;;;;;1.98;1.30;;;;;;;10.48;71.29;149928.47;5064288;28;20117;-69
2023/06/04 04:08:53;;;;;;;2.88;1.48;;;;;;;10.49;71.78;149931.03;5062936;28;20024;-69
2023/06/04 04:11:18;;;;;;;3.28;1.50;;;;;;;10.43;71.42;149914.34;5059839;28;20031;-70
2023/06/04 04:13:45;;;;;;;2.45;1.30;;;;;;;10.41;71.41;149910.50;5064548;28;20024;-69
2023/06/04 04:16:11;;;;;;;3.38;1.60;;;;;;;10.29;70.39;149881.00;5064369;28;20029;-69
2023/06/04 04:18:37;;;;;;;4.05;1.38;;;;;;;10.48;70.27;149928.47;5064543;28;20032;-70
2023/06/04 04:21:04;;;;;;;2.70;1.52;;;;;;;10.50;70.61;149933.63;5064171;28;20024;-69
2023/06/04 04:23:31;;;;;;;1.92;1.50;;;;;;;10.62;71.04;149963.09;5063909;28;20044;-69
2023/06/04 04:25:58;;;;;;;2.10;1.55;;;;;;;10.61;70.77;149959.25;5063019;28;20028;-70
2023/06/04 04:28:28;;;;;;;2.58;1.60;;;;;;;10.68;70.12;149977.22;5063868;28;20037;-69
2023/06/04 04:30:57;;;;;;;3.22;1.73;;;;;;;10.74;70.38;149991.31;5063929;28;20021;-69
2023/06/04 04:33:25;;;;;;;2.63;1.60;;;;;;;10.74;69.75;149992.59;5064244;28;20036;-69
2023/06/04 04:35:52;;;;;;;3.08;1.55;;;;;;;10.83;70.09;150015.69;5063978;28;20312;-70
2023/06/04 04:38:23;;;;;;;4.88;1.92;;;;;;;10.84;70.77;150018.22;5064126;28;20035;-68
2023/06/04 04:40:51;;;;;;;3.25;1.75;;;;;;;10.99;70.26;150054.19;5063941;28;20296;-69
2023/06/04 04:43:29;;;;;;;3.03;1.48;;;;;;;10.91;69.20;150034.91;5063498;28;20033;-69
2023/06/04 04:45:54;;;;;;;3.28;1.60;;;;;;;11.03;69.05;150065.72;5063992;28;20035;-69
2023/06/04 04:48:20;;;;;;;2.63;1.75;;;;;;;11.04;69.33;150066.97;5063514;28;20025;-69
2023/06/04 04:50:45;;;;;;;1.38;1.17;;;;;;;10.70;67.54;149982.31;5063836;28;20367;-70
2023/06/04 04:53:11;;;;;;;1.73;1.40;;;;;;;11.02;68.53;150061.88;5063460;28;20063;-68
2023/06/04 04:55:37;;;;;;;1.95;1.40;;;;;;;11.16;68.98;150096.47;5063706;28;20047;-69
2023/06/04 04:58:02;;;;;;;2.40;1.27;;;;;;;11.21;67.72;150109.31;5063686;28;20214;-69
2023/06/04 05:00:29;;;;;;;3.85;1.60;;;;;;;11.36;67.39;150146.56;5063651;28;20040;-69
2023/06/04 05:02:55;;;;;;;2.45;1.63;;;;;;;11.31;67.59;150133.72;5063557;28;20053;-69
2023/06/04 05:05:21;;;;;;;1.58;1.45;;;;;;;11.46;67.23;150170.91;5063415;28;20064;-69
2023/06/04 05:07:47;;;;;;;2.78;1.70;;;;;;;11.59;67.21;150204.31;5063557;28;20089;-69
2023/06/04 05:10:12;;;;;;;3.92;1.70;;;;;;;11.73;66.52;150238.97;5063453;28;20322;-69
2023/06/04 05:12:38;;;;;;;7.88;1.92;;;;;;;11.78;66.92;150251.78;5063509;28;20057;-71
2023/06/04 05:15:04;;;;;;;3.15;1.50;;;;;;;11.80;65.82;150255.63;5063376;28;20461;-71
2023/06/04 05:17:30;;;;;;;1.85;1.60;;;;;;;12.20;64.98;150357.13;5063163;28;20045;-69
2023/06/04 05:20:11;;;;;;;2.05;1.60;;;;;;;12.40;64.03;150405.94;5063268;28;20025;-69
2023/06/04 05:22:37;;;;;;;3.63;2.85;;;;;;;12.43;65.06;150413.63;5063396;28;20369;-69
2023/06/04 05:25:03;;;;;;;3.58;1.90;;;;;;;12.42;64.35;150412.31;5063297;28;20183;-68
2023/06/04 05:27:31;;;;;;;3.10;1.55;;;;;;;12.52;64.55;150436.72;5051003;28;20334;-70
2023/06/04 05:29:58;;;;;;;3.67;1.58;;;;;;;12.47;63.91;150422.59;5057677;28;20140;-69
2023/06/04 05:32:28;;;;;;;1.65;1.42;;;;;;;12.42;64.16;150412.31;5062003;28;20025;-70
2023/06/04 05:34:56;;;;;;;2.17;1.70;;;;;;;12.48;65.16;150426.44;5062974;28;20032;-69
2023/06/04 05:37:23;;;;;;;2.35;2.00;;;;;;;12.53;63.38;150439.28;5063359;28;20025;-69
2023/06/04 05:39:50;;;;;;;4.32;1.70;;;;;;;12.66;63.45;150470.13;5063185;28;20020;-68
2023/06/04 05:42:16;;;;;;;2.35;1.90;;;;;;;12.68;64.66;150476.53;5063205;28;20220;-69
2023/06/04 05:44:41;;;;;;;1.92;1.45;;;;;;;12.57;63.27;150449.56;5063228;28;20036;-69
2023/06/04 05:47:07;;;;;;;2.72;1.42;;;;;;;12.67;61.83;150474.00;5062442;28;20033;-70
2023/06/04 05:49:35;;;;;;;1.90;1.40;;;;;;;12.28;60.01;150375.09;5062769;28;20041;-70
2023/06/04 05:52:01;;;;;;;2.45;1.30;;;;;;;12.56;61.06;150445.72;5063092;28;20085;-70
2023/06/04 05:54:29;;;;;;;1.85;1.17;;;;;;;12.73;61.31;150489.38;5062855;28;20043;-69
2023/06/04 05:56:55;;;;;;;2.42;1.40;;;;;;;12.74;61.92;150491.97;5063089;28;20029;-70
2023/06/04 05:59:21;;;;;;;2.75;1.13;;;;;;;12.21;58.91;150359.69;5062809;28;20032;-71
2023/06/04 06:01:47;;;;;;;1.55;1.30;;;;;;;12.48;60.25;150425.16;5063080;28;20025;-69
2023/06/04 06:04:14;;;;;;;1.30;1.20;;;;;;;12.63;60.35;150462.38;5065249;28;20029;-69
2023/06/04 06:06:40;;;;;;;2.35;1.50;;;;;;;12.60;60.01;150456.00;5067063;28;20033;-70
2023/06/04 06:09:06;;;;;;;3.03;1.13;;;;;;;12.35;59.56;150393.06;5066902;28;20052;-69
2023/06/04 06:11:32;;;;;;;1.35;1.25;;;;;;;12.59;60.35;150454.69;5062042;28;20040;-71
2023/06/04 06:13:57;;;;;;;1.50;1.40;;;;;;;12.71;60.67;150482.94;5052760;28;20024;-69
2023/06/04 06:16:23;;;;;;;3.85;2.42;;;;;;;12.68;57.80;150475.25;5066419;28;20040;-69
2023/06/04 06:18:48;;;;;;;2.20;1.40;;;;;;;12.87;59.36;150522.75;5066525;28;20039;-69
2023/06/04 06:21:14;;;;;;;3.15;1.45;;;;;;;12.93;59.52;150539.47;5066237;28;20040;-70
2023/06/04 06:23:40;;;;;;;1.38;1.20;;;;;;;12.56;56.37;150445.72;5066270;28;20389;-70
2023/06/04 06:26:08;;;;;;;1.45;1.23;;;;;;;12.86;57.91;150520.22;5066627;28;20028;-68
2023/06/04 06:28:33;;;;;;;2.22;1.20;;;;;;;13.26;58.66;150621.72;5066280;28;20036;-69
2023/06/04 06:31:00;;;;;;;2.17;1.45;;;;;;;12.87;57.39;150524.06;5066216;28;20051;-69
2023/06/04 06:33:25;;;;;;;3.13;1.20;;;;;;;12.86;58.10;150521.50;5065223;28;20025;-70
2023/06/04 06:35:51;;;;;;;2.28;1.40;;;;;;;12.99;58.15;150552.34;5061623;28;20100;-69
2023/06/04 06:38:17;;;;;;;1.98;1.30;;;;;;;12.78;56.93;150500.94;5053318;28;20040;-70
2023/06/04 06:40:42;;;;;;;2.20;1.25;;;;;;;13.03;56.59;150563.91;5066232;28;20063;-70
2023/06/04 06:43:09;;;;;;;2.00;1.30;;;;;;;13.07;57.59;150572.91;5052748;28;20033;-69
2023/06/04 06:45:36;;;;;;;1.33;1.15;;;;;;;12.91;57.22;150533.06;5065018;28;20465;-69
2023/06/04 06:48:01;;;;;;;2.20;1.48;;;;;;;12.84;58.62;150516.38;5066058;28;20055;-67
2023/06/04 06:50:27;;;;;;;2.38;1.33;;;;;;;13.00;57.46;150556.19;5065721;28;20092;-67
2023/06/04 06:52:52;;;;;;;1.55;1.15;;;;;;;12.85;56.22;150517.66;5065668;28;20025;-67
2023/06/04 06:55:18;;;;;;;4.28;3.30;;;;;;;12.84;58.23;150516.38;5065466;28;20088;-68
2023/06/04 06:57:44;;;;;;;2.47;1.40;;;;;;;12.84;55.93;150516.38;5065870;28;20349;-67
2023/06/04 07:00:11;;;;;;;1.95;1.77;;;;;;;13.17;55.53;150598.59;5065628;28;20036;-68
2023/06/04 07:02:36;;;;;;;1.48;1.20;;;;;;;13.12;57.42;150587.06;5065681;28;20138;-68
2023/06/04 07:05:03;;;;;;;1.63;1.30;;;;;;;12.74;55.00;150491.97;5065405;28;20040;-68
2023/06/04 07:07:29;;;;;;;2.10;1.20;;;;;;;12.90;55.70;150531.78;5065555;28;20108;-68
2023/06/04 07:09:54;;;;;;;1.48;1.17;;;;;;;13.21;56.58;150607.56;5065562;28;20029;-68
2023/06/04 07:12:21;;;;;;;1.65;1.40;;;;;;;13.26;57.07;150620.44;5063858;28;20041;-68
2023/06/04 07:14:46;;;;;;;1.83;1.15;;;;;;;13.28;55.06;150626.88;5064276;28;20103;-68
2023/06/04 07:17:12;;;;;;;3.35;1.23;;;;;;;13.59;55.73;150704.00;5064646;28;20035;-68
2023/06/04 07:19:38;;;;;;;2.60;1.52;;;;;;;13.65;53.66;150718.16;5065118;28;20041;-68
2023/06/04 07:22:03;;;;;;;1.80;1.20;;;;;;;13.83;53.97;150761.88;5059012;28;20032;-66
2023/06/04 07:24:29;;;;;;;1.75;1.15;;;;;;;13.79;54.77;150752.88;5065173;28;20036;-67
2023/06/04 07:26:55;;;;;;;1.60;1.30;;;;;;;13.71;54.95;150733.59;5065158;28;20045;-66
2023/06/04 07:29:20;;;;;;;1.45;1.20;;;;;;;13.78;54.84;150751.59;5064831;28;20025;-66
2023/06/04 07:31:46;;;;;;;2.75;1.50;;;;;;;13.65;54.97;150718.16;5065102;28;20021;-67
2023/06/04 07:34:11;;;;;;;2.95;1.35;;;;;;;13.68;54.07;150725.91;5064997;28;20359;-67
2023/06/04 07:36:37;;;;;;;3.50;1.52;;;;;;;13.87;56.65;150773.44;5063826;28;20029;-66
2023/06/04 07:39:04;;;;;;;3.55;1.27;;;;;;;13.78;55.84;150750.28;5064884;28;20305;-66
2023/06/04 07:41:30;;;;;;;8.02;1.92;;;;;;;14.03;55.56;150813.28;5063502;28;20136;-66
2023/06/04 07:43:55;;;;;;;1.45;1.00;;;;;;;14.19;53.84;150851.88;5064838;28;20029;-67
2023/06/04 07:46:21;;;;;;;1.65;1.27;;;;;;;14.38;53.68;150899.44;5063772;28;20248;-67
2023/06/04 07:48:47;;;;;;;2.28;1.73;;;;;;;14.42;51.97;150909.72;5064487;28;20029;-67
2023/06/04 07:51:13;;;;;;;1.65;1.30;;;;;;;14.29;50.77;150878.91;5064108;28;20100;-67
2023/06/04 07:53:39;;;;;;;1.63;1.30;;;;;;;14.19;51.99;150851.88;5063357;28;20017;-67
2023/06/04 07:56:06;;;;;;;1.48;1.05;;;;;;;14.41;53.95;150907.16;5064380;28;20032;-69
2023/06/04 07:58:31;;;;;;;2.08;1.48;;;;;;;13.96;51.20;150795.28;5062949;28;20044;-68
2023/06/04 08:00:57;;;;;;;1.55;1.00;;;;;;;14.10;51.13;150830.03;5064127;28;20139;-68
2023/06/04 08:03:23;;;;;;;2.72;1.27;;;;;;;14.04;51.60;150814.56;5063436;28;20037;-68
2023/06/04 08:05:48;;;;;;;2.97;1.52;;;;;;;13.98;52.02;150800.47;5063949;28;20218;-67
2023/06/04 08:08:14;;;;;;;2.53;1.33;;;;;;;13.85;50.96;150768.28;5063284;28;20327;-67
2023/06/04 08:10:40;;;;;;;3.83;1.83;;;;;;;14.02;49.55;150809.44;5063653;28;20461;-66
2023/06/04 08:13:06;;;;;;;4.55;1.30;;;;;;;14.23;50.59;150863.44;5063691;28;20024;-67
2023/06/04 08:15:31;;;;;;;2.17;1.80;;;;;;;14.55;49.22;150941.88;5063520;28;20112;-66
2023/06/04 08:18:17;;;;;;;1.35;1.20;;;;;;;14.88;49.64;151025.59;5061817;28;20276;-67
2023/06/04 08:20:57;;;;;;;1.40;1.20;;;;;;;14.98;47.46;151051.31;5062133;28;20337;-68
2023/06/04 08:23:37;;;;;;;1.85;1.38;;;;;;;15.23;48.26;151111.78;5064335;28;20088;-68
2023/06/04 08:26:23;;;;;;;2.45;1.75;;;;;;;15.23;46.91;151113.06;5063664;28;20040;-67
2023/06/04 08:28:56;;;;;;;1.98;1.23;;;;;;;14.81;43.04;151007.56;5057514;28;20096;-68
2023/06/04 08:31:24;;;;;;;2.55;1.10;;;;;;;14.82;45.31;151011.44;5063502;28;20070;-68
2023/06/04 08:34:06;;;;;;;1.25;1.15;;;;;;;14.56;45.94;150944.47;5064163;28;20028;-67
2023/06/04 08:36:41;;;;;;;1.23;1.13;;;;;;;14.62;46.66;150959.94;5063632;28;20379;-67
2023/06/04 08:39:08;;;;;;;2.63;1.48;;;;;;;14.25;46.09;150868.59;5062379;28;20029;-69
2023/06/04 08:41:45;;;;;;;2.50;1.10;;;;;;;14.67;48.37;150974.09;5059741;28;20025;-69
2023/06/04 08:44:11;;;;;;;3.40;1.50;;;;;;;14.97;47.02;151047.44;5060849;28;20066;-69
2023/06/04 08:46:40;;;;;;;3.03;1.60;;;;;;;15.22;44.81;151109.19;5063442;28;20096;-69
2023/06/04 08:49:07;;;;;;;4.05;1.95;;;;;;;15.36;42.80;151146.53;5063016;28;20033;-68
2023/06/04 08:51:37;;;;;;;3.25;1.42;;;;;;;14.84;43.93;151015.28;5062559;28;20044;-67
2023/06/04 08:54:08;;;;;;;3.28;1.40;;;;;;;14.94;46.15;151041.00;5063257;28;20217;-66
2023/06/04 08:56:35;;;;;;;1.50;1.40;;;;;;;14.87;45.71;151021.72;5063223;28;20055;-67
2023/06/04 08:59:03;;;;;;;1.48;1.38;;;;;;;14.73;45.38;150988.25;5063192;28;20040;-68
2023/06/04 09:01:33;;;;;;;1.40;1.20;;;;;;;14.62;45.79;150961.25;5062710;28;20033;-68
2023/06/04 09:04:04;;;;;;;23.42;15.85;;;;;;;14.50;46.14;150931.59;5063284;28;20032;-66
2023/06/04 09:06:32;;;;;;;5.30;1.60;;;;;;;14.23;47.07;150862.16;5063103;28;20112;-65
2023/06/04 09:08:59;;;;;;;3.15;1.48;;;;;;;14.21;47.00;150858.31;5063324;28;20037;-65
2023/06/04 09:11:35;;;;;;;3.45;1.50;;;;;;;14.08;50.12;150824.84;5062927;28;20198;-66
2023/06/04 09:14:06;;;;;;;1.95;1.38;;;;;;;14.09;50.03;150828.69;5047001;28;20031;-68
2023/06/04 09:16:37;;;;;;;3.00;1.20;;;;;;;13.92;48.31;150786.31;5063106;28;20029;-66
2023/06/04 09:19:04;;;;;;;1.43;1.20;;;;;;;14.13;49.72;150837.72;5063239;28;20037;-68
2023/06/04 09:21:29;;;;;;;2.28;1.20;;;;;;;14.26;47.91;150869.88;5062800;28;20062;-68
2023/06/04 09:23:58;;;;;;;2.40;2.00;;;;;;;14.37;47.11;150898.16;5058383;28;20060;-67
2023/06/04 09:26:24;;;;;;;1.63;1.20;;;;;;;14.03;47.16;150812.03;5007585;28;20037;-67
2023/06/04 09:28:52;;;;;;;4.95;1.67;;;;;;;14.27;46.37;150872.47;5062352;28;20059;-65
2023/06/04 09:31:21;;;;;;;5.22;1.58;;;;;;;14.21;47.58;150858.31;5053170;28;20176;-67
2023/06/04 09:33:50;;;;;;;3.25;1.50;;;;;;;14.22;47.63;150859.59;5061692;28;20043;-66
2023/06/04 09:36:17;;;;;;;1.85;1.30;;;;;;;14.21;47.95;150858.31;5058175;28;20206;-66
2023/06/04 09:38:43;;;;;;;2.30;1.30;;;;;;;14.24;48.06;150866.03;5052546;28;20062;-67
2023/06/04 09:41:16;;;;;;;1.80;1.38;;;;;;;14.21;47.03;150857.00;5062702;28;20088;-67
2023/06/04 09:43:43;;;;;;;1.77;1.30;;;;;;;14.19;47.70;150853.16;5062663;28;20063;-67
2023/06/04 09:46:14;;;;;;;3.20;1.38;;;;;;;13.95;43.33;150794.03;5058394;28;20029;-66
2023/06/04 09:48:41;;;;;;;4.72;1.25;;;;;;;14.05;43.42;150818.47;5061535;28;20036;-67
2023/06/04 09:51:19;;;;;;;2.13;0.90;;;;;;;14.20;44.09;150854.47;5062691;28;20031;-66
2023/06/04 09:54:14;;;;;;;2.67;1.17;;;;;;;14.40;43.27;150904.63;5062373;28;20301;-66
2023/06/04 09:56:41;;;;;;;2.85;1.35;;;;;;;14.24;44.19;150864.75;5053403;28;20121;-66
2023/06/04 09:59:09;;;;;;;1.40;1.23;;;;;;;14.42;45.76;150909.72;5062708;28;20025;-66
2023/06/04 10:01:40;;;;;;;1.98;1.50;;;;;;;14.56;46.01;150944.47;5062356;28;20039;-66
2023/06/04 10:04:07;;;;;;;4.93;1.58;;;;;;;14.53;46.48;150938.03;5062414;28;20047;-66
2023/06/04 10:06:35;;;;;;;3.00;1.40;;;;;;;14.75;45.72;150992.09;5059122;28;20101;-65
2023/06/04 10:09:06;;;;;;;1.75;1.60;;;;;;;14.78;45.33;150999.84;5056694;28;20036;-66
2023/06/04 10:11:55;;;;;;;2.37;1.30;;;;;;;14.98;46.17;151051.31;5062066;28;20041;-66
2023/06/04 10:14:29;;;;;;;2.95;1.50;;;;;;;15.05;45.32;151068.03;5061969;28;20079;-67
2023/06/04 10:16:58;;;;;;;1.70;1.35;;;;;;;15.22;46.40;151109.19;5062062;28;20035;-67
2023/06/04 10:19:24;;;;;;;2.85;1.20;;;;;;;15.18;44.78;151101.47;5061170;28;20020;-65
2023/06/04 10:21:50;;;;;;;1.70;1.20;;;;;;;15.27;44.55;151123.34;5060514;28;20203;-66
2023/06/04 10:24:16;;;;;;;2.55;1.40;;;;;;;15.41;45.14;151156.84;5062416;28;20032;-66
2023/06/04 10:26:42;;;;;;;1.85;1.33;;;;;;;15.19;43.43;151102.75;5062421;28;20273;-66
2023/06/04 10:29:08;;;;;;;2.40;1.42;;;;;;;15.51;43.45;151182.56;5061235;28;20027;-68
2023/06/04 10:31:36;;;;;;;2.28;1.15;;;;;;;15.54;43.33;151190.28;5061894;28;20104;-67
2023/06/04 10:34:03;;;;;;;3.08;1.35;;;;;;;15.60;41.76;151205.72;5074519;28;20032;-67
2023/06/04 10:36:28;;;;;;;5.82;1.58;;;;;;;15.62;43.46;151209.56;5065988;28;20033;-66
2023/06/04 10:38:55;;;;;;;2.55;1.40;;;;;;;15.57;44.48;151196.75;5062357;28;20032;-67
2023/06/04 10:41:22;;;;;;;2.85;1.52;;;;;;;15.39;42.31;151151.66;5062016;28;20044;-66
2023/06/04 10:43:50;;;;;;;3.47;2.05;;;;;;;15.46;43.99;151171.00;5062383;28;20036;-66
2023/06/04 10:46:17;;;;;;;4.45;1.20;;;;;;;15.29;40.57;151128.53;5075147;28;20036;-66
2023/06/04 10:48:50;;;;;;;1.45;1.35;;;;;;;15.58;41.62;151200.59;5081224;28;20290;-66
2023/06/04 10:51:29;;;;;;;2.35;1.10;;;;;;;15.65;40.93;151218.59;5070979;28;20039;-66
2023/06/04 10:53:56;;;;;;;1.83;1.00;;;;;;;15.57;42.37;151198.00;5065698;28;20025;-67
2023/06/04 10:56:31;;;;;;;2.22;1.33;;;;;;;15.75;41.61;151241.75;5061332;28;20033;-68
2023/06/04 10:58:58;;;;;;;5.22;2.88;;;;;;;15.57;41.08;151196.75;5049169;28;20036;-66
2023/06/04 11:01:28;;;;;;;3.65;2.03;;;;;;;15.62;41.18;151209.56;5065002;28;20028;-65
2023/06/04 11:03:55;;;;;;;4.30;1.70;;;;;;;15.62;42.34;151210.91;5065440;28;20029;-66
2023/06/04 11:06:22;;;;;;;2.63;1.35;;;;;;;15.68;40.63;151225.06;5065567;28;20104;-66
2023/06/04 11:08:48;;;;;;;2.78;1.20;;;;;;;15.73;41.79;151237.91;5065256;28;20329;-66
2023/06/04 11:11:15;;;;;;;1.90;1.48;;;;;;;15.49;41.44;151177.41;5063913;28;20028;-66
2023/06/04 11:13:41;;;;;;;2.00;1.50;;;;;;;15.69;44.14;151228.91;5064961;28;20028;-67
2023/06/04 11:16:20;;;;;;;2.08;1.38;;;;;;;15.63;43.11;151213.44;5064745;28;20040;-66
2023/06/04 11:18:56;;;;;;;3.40;1.50;;;;;;;15.46;41.63;151169.69;5064703;28;20083;-67
2023/06/04 11:21:23;;;;;;;3.05;1.70;;;;;;;15.36;43.43;151146.53;5064380;28;20351;-68
2023/06/04 11:23:49;;;;;;;3.08;1.98;;;;;;;15.57;42.49;151198.00;5064671;28;20132;-66
2023/06/04 11:26:15;;;;;;;2.25;1.50;;;;;;;15.63;42.82;151212.16;5063144;28;20028;-67
2023/06/04 11:28:42;;;;;;;3.50;1.60;;;;;;;15.56;42.92;151195.41;5064604;28;20092;-67